createdAt,value
2023-03-26T00:02:04.571Z,92501.34
2023-03-26T00:05:09.893Z,92500.25
2023-03-26T00:08:13.074Z,92501.56
2023-03-26T00:11:18.036Z,92501.56
2023-03-26T00:14:21.171Z,92503.28
2023-03-26T00:17:25.342Z,92503.16
2023-03-26T00:20:30.456Z,92503.34
2023-03-26T00:23:35.913Z,92500.00
2023-03-26T00:26:39.540Z,92503.44
2023-03-26T00:29:42.660Z,92498.31
2023-03-26T00:32:53.184Z,92498.56
2023-03-26T00:35:59.521Z,92501.31
2023-03-26T00:39:06.404Z,92497.50
2023-03-26T00:42:09.622Z,92504.69
2023-03-26T00:45:13.370Z,92507.81
2023-03-26T00:48:18.355Z,92503.66
2023-03-26T00:51:22.690Z,92504.69
2023-03-26T00:54:25.941Z,92501.22
2023-03-26T00:57:35.939Z,92504.91
2023-03-26T01:00:58.056Z,92509.88
2023-03-26T01:04:24.773Z,92511.81
2023-03-26T01:07:29.715Z,92513.09
2023-03-26T01:10:39.525Z,92511.22
2023-03-26T01:13:50.493Z,92515.91
2023-03-26T01:16:56.584Z,92515.34
2023-03-26T01:20:13.832Z,92516.75
2023-03-26T01:23:24.681Z,92514.13
2023-03-26T01:27:05.174Z,92510.91
2023-03-26T01:30:31.643Z,92515.38
2023-03-26T01:33:54.600Z,92519.19
2023-03-26T01:37:16.231Z,92513.31
2023-03-26T01:40:32.469Z,92515.91
2023-03-26T01:43:48.527Z,92514.63
2023-03-26T01:46:53.269Z,92515.25
2023-03-26T01:49:56.702Z,92512.00
2023-03-26T01:53:00.381Z,92523.63
2023-03-26T01:56:15.906Z,92524.78
2023-03-26T01:59:37.470Z,92518.22
2023-03-26T02:03:06.417Z,92522.25
2023-03-26T02:06:27.067Z,92515.84
2023-03-26T02:09:33.996Z,92513.16
2023-03-26T02:12:38.380Z,92519.06
2023-03-26T02:15:42.231Z,92517.09
2023-03-26T02:18:48.029Z,92517.78
2023-03-26T02:22:00.292Z,92509.41
2023-03-26T02:25:06.292Z,92507.53
2023-03-26T02:28:09.712Z,92515.31
2023-03-26T02:31:14.478Z,92517.22
2023-03-26T02:34:17.806Z,92512.16
2023-03-26T02:37:31.080Z,92512.81
2023-03-26T02:40:45.259Z,92505.09
2023-03-26T02:43:48.823Z,92506.44
2023-03-26T02:46:55.533Z,92517.59
2023-03-26T02:50:18.675Z,92511.22
2023-03-26T02:53:43.763Z,92502.19
2023-03-26T02:57:06.922Z,92505.47
2023-03-26T03:00:28.040Z,92496.34
2023-03-26T03:04:04.892Z,92500.31
2023-03-26T03:07:15.069Z,92500.31
2023-03-26T03:10:22.565Z,92483.44
2023-03-26T03:13:39.093Z,92477.59
2023-03-26T03:16:44.490Z,92475.66
2023-03-26T03:19:48.344Z,92472.47
2023-03-26T03:22:52.264Z,92465.34
2023-03-26T03:25:57.878Z,92469.28
2023-03-26T03:29:01.389Z,92464.78
2023-03-26T03:32:05.915Z,92461.59
2023-03-26T03:35:21.538Z,92464.22
2023-03-26T03:38:29.436Z,92457.09
2023-03-26T03:41:33.149Z,92462.28
2023-03-26T03:44:39.481Z,92464.25
2023-03-26T03:47:53.677Z,92457.09
2023-03-26T03:51:04.268Z,92455.13
2023-03-26T03:54:17.154Z,92451.91
2023-03-26T03:57:22.961Z,92453.19
2023-03-26T04:00:33.980Z,92444.09
2023-03-26T04:03:59.853Z,92442.75
2023-03-26T04:07:19.073Z,92438.81
2023-03-26T04:10:52.183Z,92436.25
2023-03-26T04:14:13.772Z,92449.94
2023-03-26T04:17:43.212Z,92441.47
2023-03-26T04:20:48.612Z,92441.50
2023-03-26T04:24:02.351Z,92436.28
2023-03-26T04:27:43.911Z,92443.44
2023-03-26T04:31:25.061Z,92433.03
2023-03-26T04:34:30.646Z,92442.84
2023-03-26T04:37:59.839Z,92438.25
2023-03-26T04:41:12.038Z,92431.06
2023-03-26T04:44:43.009Z,92439.56
2023-03-26T04:47:49.622Z,92440.19
2023-03-26T04:50:53.030Z,92434.34
2023-03-26T04:53:59.571Z,92431.75
2023-03-26T04:57:33.279Z,92430.44
2023-03-26T05:00:48.145Z,92431.13
2023-03-26T05:03:52.023Z,92426.50
2023-03-26T05:06:57.487Z,92435.59
2023-03-26T05:10:10.214Z,92432.31
2023-03-26T05:13:18.112Z,92433.66
2023-03-26T05:16:26.810Z,92429.75
2023-03-26T05:19:34.250Z,92425.81
2023-03-26T05:22:39.395Z,92419.28
2023-03-26T05:25:52.581Z,92419.13
2023-03-26T05:28:58.639Z,92415.78
2023-03-26T05:32:19.913Z,92418.94
2023-03-26T05:35:26.388Z,92417.59
2023-03-26T05:38:31.298Z,92418.75
2023-03-26T05:41:35.121Z,92408.75
2023-03-26T05:44:39.250Z,92412.13
2023-03-26T05:47:54.890Z,92406.75
2023-03-26T05:51:02.180Z,92408.50
2023-03-26T05:54:08.426Z,92407.09
2023-03-26T05:57:32.566Z,92409.66
2023-03-26T06:01:09.498Z,92413.59
2023-03-26T06:04:36.128Z,92407.78
2023-03-26T06:07:59.129Z,92417.75
2023-03-26T06:11:14.508Z,92412.91
2023-03-26T06:14:18.163Z,92406.00
2023-03-26T06:17:45.375Z,92409.34
2023-03-26T06:21:15.480Z,92405.38
2023-03-26T06:24:33.870Z,92406.63
2023-03-26T06:27:55.587Z,92400.63
2023-03-26T06:31:20.029Z,92406.25
2023-03-26T06:34:31.664Z,92406.09
2023-03-26T06:37:35.627Z,92408.09
2023-03-26T06:40:39.887Z,92410.09
2023-03-26T06:44:02.282Z,92399.63
2023-03-26T06:47:24.522Z,92387.78
2023-03-26T06:50:48.481Z,92391.03
2023-03-26T06:54:08.541Z,92388.53
2023-03-26T06:57:41.726Z,92393.97
2023-03-26T07:01:04.394Z,92395.50
2023-03-26T07:04:30.895Z,92392.31
2023-03-26T07:07:54.228Z,92393.09
2023-03-26T07:11:18.316Z,92399.75
2023-03-26T07:14:48.523Z,92394.63
2023-03-26T07:18:18.312Z,92393.88
2023-03-26T07:21:23.788Z,92398.41
2023-03-26T07:24:29.656Z,92400.38
2023-03-26T07:27:48.801Z,92399.72
2023-03-26T07:31:14.011Z,92390.03
2023-03-26T07:35:00.733Z,92399.19
2023-03-26T07:38:41.285Z,92393.31
2023-03-26T07:42:33.765Z,92390.72
2023-03-26T07:45:56.979Z,92389.41
2023-03-26T07:49:23.122Z,92393.31
2023-03-26T07:52:52.653Z,92389.44
2023-03-26T07:56:22.210Z,92389.41
2023-03-26T08:00:01.159Z,92381.63
2023-03-26T08:03:32.896Z,92388.13
2023-03-26T08:06:40.564Z,92384.19
2023-03-26T08:10:03.625Z,92393.34
2023-03-26T08:13:35.671Z,92385.50
2023-03-26T08:16:43.492Z,92388.78
2023-03-26T08:20:11.669Z,92392.69
2023-03-26T08:23:22.513Z,92390.72
2023-03-26T08:26:39.289Z,92387.50
2023-03-26T08:30:08.192Z,92386.16
2023-03-26T08:33:18.655Z,92386.19
2023-03-26T08:36:21.968Z,92385.53
2023-03-26T08:39:25.620Z,92389.41
2023-03-26T08:43:06.394Z,92382.25
2023-03-26T08:46:28.030Z,92380.28
2023-03-26T08:50:08.321Z,92388.75
2023-03-26T08:53:32.842Z,92376.34
2023-03-26T08:56:47.920Z,92389.31
2023-03-26T09:00:17.474Z,92386.00
2023-03-26T09:03:43.904Z,92386.69
2023-03-26T09:07:24.263Z,92382.13
2023-03-26T09:10:53.368Z,92388.66
2023-03-26T09:14:24.418Z,92388.66
2023-03-26T09:17:56.658Z,92391.91
2023-03-26T09:21:19.776Z,92386.72
2023-03-26T09:24:58.541Z,92382.84
2023-03-26T09:28:16.978Z,92383.50
2023-03-26T09:31:37.681Z,92381.56
2023-03-26T09:34:58.800Z,92389.41
2023-03-26T09:38:13.148Z,92382.91
2023-03-26T09:41:17.956Z,92383.56
2023-03-26T09:44:24.254Z,92382.94
2023-03-26T09:47:30.392Z,92386.16
2023-03-26T09:51:02.525Z,92379.66
2023-03-26T09:54:24.271Z,92383.56
2023-03-26T09:57:59.131Z,92384.88
2023-03-26T10:01:39.472Z,92381.63
2023-03-26T10:05:07.013Z,92384.19
2023-03-26T10:08:21.015Z,92389.44
2023-03-26T10:11:42.595Z,92395.91
2023-03-26T10:15:27.452Z,92389.41
2023-03-26T10:19:01.787Z,92395.88
2023-03-26T10:22:28.872Z,92403.00
2023-03-26T10:25:50.496Z,92401.00
2023-03-26T10:29:21.072Z,92399.66
2023-03-26T10:32:51.833Z,92407.34
2023-03-26T10:36:31.877Z,92414.47
2023-03-26T10:39:56.989Z,92415.69
2023-03-26T10:43:20.362Z,92420.81
2023-03-26T10:46:55.720Z,92420.72
2023-03-26T10:50:16.937Z,92434.91
2023-03-26T10:53:43.059Z,92423.78
2023-03-26T10:56:48.111Z,92432.13
2023-03-26T10:59:55.261Z,92444.34
2023-03-26T11:03:20.073Z,92444.91
2023-03-26T11:06:33.283Z,92442.78
2023-03-26T11:10:12.357Z,92445.13
2023-03-26T11:13:41.951Z,92447.53
2023-03-26T11:16:45.228Z,92450.59
2023-03-26T11:20:01.109Z,92443.25
2023-03-26T11:23:28.594Z,92458.72
2023-03-26T11:26:47.430Z,92468.28
2023-03-26T11:30:04.404Z,92469.44
2023-03-26T11:33:20.709Z,92464.09
2023-03-26T11:36:31.276Z,92477.72
2023-03-26T11:39:52.786Z,92481.59
2023-03-26T11:43:04.448Z,92493.84
2023-03-26T11:46:13.052Z,92489.88
2023-03-26T11:49:21.494Z,92493.00
2023-03-26T11:52:24.991Z,92486.28
2023-03-26T11:55:28.705Z,92496.56
2023-03-26T11:58:55.628Z,92497.16
2023-03-26T12:02:17.230Z,92495.84
2023-03-26T12:05:27.184Z,92500.41
2023-03-26T12:08:39.155Z,92504.91
2023-03-26T12:11:46.811Z,92512.59
2023-03-26T12:14:50.399Z,92506.06
2023-03-26T12:17:57.134Z,92507.38
2023-03-26T12:21:11.463Z,92511.88
2023-03-26T12:24:33.812Z,92515.72
2023-03-26T12:27:42.604Z,92516.28
2023-03-26T12:31:06.212Z,92513.63
2023-03-26T12:34:21.433Z,92526.47
2023-03-26T12:37:38.013Z,92527.81
2023-03-26T12:40:43.369Z,92533.59
2023-03-26T12:44:49.992Z,92538.16
2023-03-26T12:47:56.355Z,92538.13
2023-03-26T12:51:26.387Z,92550.28
2023-03-26T12:54:46.350Z,92547.53
2023-03-26T12:58:13.496Z,92549.31
2023-03-26T13:01:35.135Z,92556.22
2023-03-26T13:05:02.224Z,92554.22
2023-03-26T13:08:17.669Z,92549.66
2023-03-26T13:11:40.431Z,92553.41
2023-03-26T13:14:54.254Z,92557.72
2023-03-26T13:18:28.023Z,92563.34
2023-03-26T13:21:54.484Z,92556.25
2023-03-26T13:25:08.411Z,92557.59
2023-03-26T13:28:15.868Z,92563.44
2023-03-26T13:31:47.610Z,92559.53
2023-03-26T13:35:24.920Z,92560.78
2023-03-26T13:39:04.170Z,92559.38
2023-03-26T13:42:34.360Z,92567.00
2023-03-26T13:45:52.849Z,92570.03
2023-03-26T13:49:18.084Z,92567.19
2023-03-26T13:52:49.304Z,92566.13
2023-03-26T13:56:01.569Z,92567.06
2023-03-26T13:59:14.105Z,92564.94
2023-03-26T14:02:52.481Z,92561.56
2023-03-26T14:06:00.622Z,92565.78
2023-03-26T14:09:13.462Z,92567.41
2023-03-26T14:12:33.574Z,92571.03
2023-03-26T14:15:51.265Z,92567.75
2023-03-26T14:19:19.534Z,92564.56
2023-03-26T14:22:22.672Z,92559.31
2023-03-26T14:25:25.936Z,92564.38
2023-03-26T14:28:59.509Z,92567.47
2023-03-26T14:32:24.571Z,92558.88
2023-03-26T14:35:55.390Z,92568.88
2023-03-26T14:39:32.734Z,92570.53
2023-03-26T14:42:46.787Z,92562.78
2023-03-26T14:46:13.284Z,92567.34
2023-03-26T14:49:29.176Z,92567.25
2023-03-26T14:52:44.019Z,92566.41
2023-03-26T14:55:59.205Z,92571.88
2023-03-26T14:59:07.933Z,92573.03
2023-03-26T15:02:48.355Z,92577.41
2023-03-26T15:06:06.597Z,92570.34
2023-03-26T15:09:28.116Z,92566.44
2023-03-26T15:12:55.209Z,92563.38
2023-03-26T15:16:39.443Z,92560.91
2023-03-26T15:20:03.798Z,92557.50
2023-03-26T15:23:21.881Z,92557.94
2023-03-26T15:26:43.305Z,92555.25
2023-03-26T15:30:02.423Z,92554.38
2023-03-26T15:33:27.151Z,92559.84
2023-03-26T15:36:30.948Z,92562.06
2023-03-26T15:39:59.055Z,92564.56
2023-03-26T15:43:12.516Z,92556.91
2023-03-26T15:46:38.619Z,92557.91
2023-03-26T15:49:48.608Z,92555.34
2023-03-26T15:53:03.777Z,92560.44
2023-03-26T15:56:34.805Z,92558.53
2023-03-26T15:59:59.961Z,92559.13
2023-03-26T16:03:40.763Z,92558.41
2023-03-26T16:07:11.898Z,92553.88
2023-03-26T16:10:38.983Z,92542.91
2023-03-26T16:14:09.274Z,92551.81
2023-03-26T16:17:24.017Z,92556.38
2023-03-26T16:20:47.941Z,92553.13
2023-03-26T16:23:54.895Z,92545.97
2023-03-26T16:27:09.597Z,92551.03
2023-03-26T16:30:33.677Z,92549.00
2023-03-26T16:33:39.801Z,92543.09
2023-03-26T16:36:50.468Z,92548.72
2023-03-26T16:39:54.113Z,92546.13
2023-03-26T16:43:24.994Z,92548.72
2023-03-26T16:46:37.088Z,92544.09
2023-03-26T16:50:09.576Z,92547.72
2023-03-26T16:53:30.533Z,92543.06
2023-03-26T16:57:02.548Z,92548.59
2023-03-26T17:00:25.206Z,92550.28
2023-03-26T17:03:35.997Z,92547.16
2023-03-26T17:07:09.308Z,92543.25
2023-03-26T17:10:32.585Z,92550.66
2023-03-26T17:13:48.161Z,92552.50
2023-03-26T17:17:20.631Z,92550.53
2023-03-26T17:20:40.545Z,92544.19
2023-03-26T17:23:56.497Z,92546.91
2023-03-26T17:27:37.089Z,92549.81
2023-03-26T17:30:51.211Z,92544.81
2023-03-26T17:33:55.084Z,92546.88
2023-03-26T17:37:00.587Z,92548.25
2023-03-26T17:40:12.946Z,92547.66
2023-03-26T17:43:41.000Z,92552.91
2023-03-26T17:46:48.996Z,92547.78
2023-03-26T17:50:06.527Z,92553.00
2023-03-26T17:53:27.822Z,92549.69
2023-03-26T17:56:35.356Z,92554.06
2023-03-26T17:59:39.381Z,92551.25
2023-03-26T18:02:48.285Z,92552.50
2023-03-26T18:05:56.540Z,92553.63
2023-03-26T18:09:23.760Z,92558.69
2023-03-26T18:13:10.335Z,92565.56
2023-03-26T18:16:25.034Z,92560.75
2023-03-26T18:19:29.201Z,92554.25
2023-03-26T18:22:32.401Z,92558.13
2023-03-26T18:25:36.530Z,92550.91
2023-03-26T18:28:54.405Z,92553.88
2023-03-26T18:32:04.190Z,92553.03
2023-03-26T18:35:22.223Z,92547.94
2023-03-26T18:38:35.954Z,92549.28
2023-03-26T18:41:43.980Z,92546.66
2023-03-26T18:44:51.467Z,92534.25
2023-03-26T18:48:00.973Z,92538.59
2023-03-26T18:51:07.330Z,92538.81
2023-03-26T18:54:17.777Z,92540.16
2023-03-26T18:57:24.312Z,92536.94
2023-03-26T19:00:30.993Z,92533.34
2023-03-26T19:03:46.077Z,92528.13
2023-03-26T19:06:54.383Z,92526.97
2023-03-26T19:09:57.841Z,92526.13
2023-03-26T19:13:13.380Z,92526.03
2023-03-26T19:16:28.739Z,92522.19
2023-03-26T19:19:38.089Z,92516.97
2023-03-26T19:22:43.077Z,92523.34
2023-03-26T19:26:10.493Z,92522.63
2023-03-26T19:29:18.175Z,92521.22
2023-03-26T19:32:35.773Z,92508.91
2023-03-26T19:35:40.526Z,92504.31
2023-03-26T19:38:47.737Z,92508.09
2023-03-26T19:41:52.959Z,92502.78
2023-03-26T19:44:58.425Z,92501.31
2023-03-26T19:48:14.477Z,92500.28
2023-03-26T19:51:24.682Z,92503.13
2023-03-26T19:54:27.994Z,92503.56
2023-03-26T19:57:33.521Z,92499.59
2023-03-26T20:00:37.374Z,92491.38
2023-03-26T20:03:43.602Z,92491.31
2023-03-26T20:06:49.800Z,92488.09
2023-03-26T20:09:53.982Z,92478.34
2023-03-26T20:12:57.373Z,92477.16
2023-03-26T20:16:30.610Z,92475.19
2023-03-26T20:19:34.378Z,92475.69
2023-03-26T20:22:37.886Z,92473.78
2023-03-26T20:25:50.816Z,92465.78
2023-03-26T20:28:54.393Z,92469.94
2023-03-26T20:31:58.448Z,92464.97
2023-03-26T20:35:02.874Z,92461.59
2023-03-26T20:38:10.203Z,92469.22
2023-03-26T20:41:24.649Z,92469.13
2023-03-26T20:44:28.687Z,92462.69
2023-03-26T20:47:35.318Z,92462.63
2023-03-26T20:51:01.578Z,92470.06
2023-03-26T20:54:09.779Z,92473.19
2023-03-26T20:57:14.126Z,92478.88
2023-03-26T21:00:24.060Z,92481.38
2023-03-26T21:03:27.498Z,92486.44
2023-03-26T21:06:30.933Z,92486.94
2023-03-26T21:09:37.531Z,92482.78
2023-03-26T21:13:14.220Z,92481.03
2023-03-26T21:16:18.167Z,92477.00
2023-03-26T21:19:25.097Z,92481.41
2023-03-26T21:22:47.051Z,92486.84
2023-03-26T21:26:21.202Z,92490.19
2023-03-26T21:29:25.140Z,92485.44
2023-03-26T21:32:28.899Z,92494.66
2023-03-26T21:35:32.750Z,92485.94
2023-03-26T21:38:36.709Z,92489.81
2023-03-26T21:42:05.017Z,92480.06
2023-03-26T21:45:12.953Z,92483.19
2023-03-26T21:48:17.913Z,92477.69
2023-03-26T21:51:21.886Z,92490.00
2023-03-26T21:54:28.812Z,92491.97
2023-03-26T21:57:48.886Z,92494.75
2023-03-26T22:01:18.343Z,92492.09
2023-03-26T22:04:36.948Z,92504.41
2023-03-26T22:07:40.346Z,92497.09
2023-03-26T22:10:49.071Z,92501.00
2023-03-26T22:13:52.969Z,92499.97
2023-03-26T22:16:56.408Z,92512.66
2023-03-26T22:20:01.984Z,92509.31
2023-03-26T22:23:07.717Z,92514.22
2023-03-26T22:26:11.066Z,92520.25
2023-03-26T22:29:15.322Z,92523.19
2023-03-26T22:32:19.048Z,92525.91
2023-03-26T22:35:22.614Z,92520.56
2023-03-26T22:38:26.117Z,92525.03
2023-03-26T22:41:32.545Z,92522.38
2023-03-26T22:44:36.321Z,92524.84
2023-03-26T22:47:40.295Z,92524.75
2023-03-26T22:50:47.592Z,92528.56
2023-03-26T22:53:51.555Z,92529.22
2023-03-26T22:56:56.414Z,92536.00
2023-03-26T23:00:08.953Z,92533.63
2023-03-26T23:03:12.699Z,92540.84
2023-03-26T23:06:16.987Z,92542.75
2023-03-26T23:09:20.914Z,92539.94
2023-03-26T23:12:24.738Z,92537.81
2023-03-26T23:15:31.352Z,92546.16
2023-03-26T23:18:35.315Z,92546.53
2023-03-26T23:21:38.719Z,92553.78
2023-03-26T23:28:20.765Z,92552.19
2023-03-26T23:31:26.322Z,92553.06
2023-03-26T23:34:29.918Z,92559.47
2023-03-26T23:37:35.601Z,92560.22
2023-03-26T23:40:40.798Z,92557.81
2023-03-26T23:43:53.928Z,92565.00
2023-03-26T23:46:58.870Z,92567.56
2023-03-26T23:50:05.829Z,92563.09
2023-03-26T23:53:09.502Z,92561.56
2023-03-26T23:56:15.992Z,92578.09
2023-03-26T23:59:19.728Z,92574.47
